KEYW

Key West International Airport

Key West, Florida, USA
METAR KEYW 200053Z 05008KT 10SM CLR 18/13 A3019 RMK AO2 SLP222 T01780128
Observed Flight Rules
Jan-20 @ 00:53 UTC (22 minutes ago) Visual Flight Rules
Wind Visibility Clouds
50° at 8 knots 10 miles
  • Clear skies
Temperatures Readings
Current 18°C / 64°F
Dewpoint 13°C / 55°F
Humidity 73%
Altimeter 30.19" Hg
Pressure 1022.2 hPa
Elevation 5
METAR KEYW 200053Z 05008KT 10SM CLR 18/13 A3019 RMK AO2 SLP222 T01780128
Observed Flight Rules
Jan-20 @ 00:53 UTC
(22 minutes ago)
VFR
Wind Visibility
50° at 8 knots 10 miles
Clouds
  • Clear skies
Temperature Dewpoint
18°C / 64°F 13°C / 55°F
Humidity Altimeter Pressure
73% 30.19" Hg 1022.2 hPa